61MA weather

Shirley Airport
Shirley, Massachusetts, United States

Public forecast

Using degrees Fahrenheit for public forecast. Weather courtesy of forecast.io.

Closest aviation weather report (METAR) to Shirley Airport

Closest report is Fitchburg Municipal Airport, 4.5 nm (8.3 km) WNW. Retrieved 2020/01/20 23:52 UTC (2 hours ago):

KFIT 202352Z AUTO 29006KT 10SM CLR M08/M21 A3027 RMK AO2 SLP259 T10781206 11028 21078 51021

Closest aviation forecast (TAF) to Shirley Airport

Closest forecast is Laurence G Hanscom Field, 17.0 nm (31.4 km) ESE. Retrieved 2020-01-21 00:22 UTC (1 hour ago):

TAF KBED 202320Z 2100/2124 30008KT P6SM SKC FM212300 00000KT P6SM SCT150